createdAt,value
2018-09-08T00:03:01.342Z,72.25
2018-09-08T00:05:30.337Z,72.75
2018-09-08T00:07:58.778Z,72.79
2018-09-08T00:10:27.195Z,72.42
2018-09-08T00:12:55.941Z,72.59
2018-09-08T00:15:29.911Z,72.55
2018-09-08T00:18:03.768Z,72.77
2018-09-08T00:20:37.717Z,72.44
2018-09-08T00:23:11.477Z,72.83
2018-09-08T00:25:45.640Z,72.96
2018-09-08T00:28:32.336Z,72.86
2018-09-08T00:31:01.035Z,72.97
2018-09-08T00:33:29.638Z,73.52
2018-09-08T00:35:58.277Z,73.30
2018-09-08T00:38:26.899Z,73.91
2018-09-08T00:40:55.378Z,74.16
2018-09-08T00:43:23.870Z,74.02
2018-09-08T00:45:52.633Z,74.02
2018-09-08T00:48:21.182Z,73.97
2018-09-08T00:50:49.696Z,73.98
2018-09-08T00:53:18.193Z,73.95
2018-09-08T00:55:46.685Z,74.53
2018-09-08T00:58:15.177Z,74.78
2018-09-08T01:00:43.601Z,74.57
2018-09-08T01:03:12.138Z,75.08
2018-09-08T01:05:40.566Z,74.94
2018-09-08T01:08:09.448Z,75.40
2018-09-08T01:10:37.982Z,75.22
2018-09-08T01:13:06.570Z,75.82
2018-09-08T01:15:35.077Z,75.47
2018-09-08T01:18:03.760Z,75.78
2018-09-08T01:20:32.366Z,75.43
2018-09-08T01:23:00.908Z,75.85
2018-09-08T01:25:29.480Z,75.65
2018-09-08T01:27:57.974Z,76.29
2018-09-08T01:30:26.462Z,76.45
2018-09-08T01:33:23.769Z,76.37
2018-09-08T01:35:52.506Z,76.47
2018-09-08T01:38:21.197Z,76.76
2018-09-08T01:40:49.776Z,76.99
2018-09-08T01:43:18.557Z,77.40
2018-09-08T01:45:47.027Z,77.58
2018-09-08T01:48:15.616Z,77.27
2018-09-08T01:50:44.040Z,77.83
2018-09-08T01:53:12.718Z,77.91
2018-09-08T01:55:41.287Z,78.41
2018-09-08T01:58:09.873Z,78.54
2018-09-08T02:00:38.293Z,78.49
2018-09-08T02:03:07.071Z,78.88
2018-09-08T02:05:35.620Z,78.84
2018-09-08T02:08:04.091Z,79.22
2018-09-08T02:10:32.550Z,79.26
2018-09-08T02:13:01.158Z,79.14
2018-09-08T02:15:29.945Z,79.68
2018-09-08T02:17:58.382Z,79.46
2018-09-08T02:20:26.904Z,79.59
2018-09-08T02:22:55.373Z,80.00
2018-09-08T02:25:23.910Z,79.88
2018-09-08T02:27:52.458Z,80.20
2018-09-08T02:30:20.893Z,79.91
2018-09-08T02:32:49.444Z,80.80
2018-09-08T02:35:17.872Z,80.41
2018-09-08T02:37:46.397Z,80.51
2018-09-08T02:40:14.873Z,81.26
2018-09-08T02:42:43.499Z,81.35
2018-09-08T02:45:11.951Z,81.44
2018-09-08T02:47:40.390Z,81.08
2018-09-08T02:50:20.026Z,81.18
2018-09-08T02:52:47.265Z,81.30
2018-09-08T02:55:14.599Z,81.31
2018-09-08T02:57:41.973Z,81.68
2018-09-08T03:00:09.313Z,81.73
2018-09-08T03:02:36.587Z,82.20
2018-09-08T03:05:21.872Z,82.39
2018-09-08T03:07:49.161Z,82.25
2018-09-08T03:10:16.823Z,82.37
2018-09-08T03:12:44.148Z,82.38
2018-09-08T03:15:11.474Z,82.66
2018-09-08T03:17:38.890Z,82.82
2018-09-08T03:20:06.157Z,83.03
2018-09-08T03:22:33.537Z,83.13
2018-09-08T03:25:00.949Z,82.76
2018-09-08T03:27:28.208Z,82.90
2018-09-08T03:29:55.460Z,82.83
2018-09-08T03:32:22.711Z,82.80
2018-09-08T03:34:49.971Z,83.15
2018-09-08T03:37:17.248Z,83.17
2018-09-08T03:39:44.504Z,83.60
2018-09-08T03:42:11.788Z,83.77
2018-09-08T03:44:39.132Z,83.64
2018-09-08T03:47:07.291Z,83.90
2018-09-08T03:49:39.453Z,83.59
2018-09-08T03:52:06.690Z,83.94
2018-09-08T03:54:33.961Z,84.12
2018-09-08T03:57:01.244Z,83.87
2018-09-08T03:59:28.583Z,84.03
2018-09-08T04:01:55.924Z,84.23
2018-09-08T04:04:24.467Z,83.80
2018-09-08T04:06:52.958Z,84.24
2018-09-08T04:09:21.441Z,83.83
2018-09-08T04:11:49.927Z,83.83
2018-09-08T04:14:18.369Z,84.06
2018-09-08T04:16:46.901Z,83.93
2018-09-08T04:19:15.341Z,83.72
2018-09-08T04:21:43.781Z,83.78
2018-09-08T04:24:12.320Z,83.83
2018-09-08T04:26:40.898Z,83.86
2018-09-08T04:29:09.394Z,83.81
2018-09-08T04:31:37.872Z,83.40
2018-09-08T04:34:06.448Z,83.64
2018-09-08T04:36:34.977Z,83.92
2018-09-08T04:39:03.674Z,84.22
2018-09-08T04:41:32.204Z,83.87
2018-09-08T04:44:00.692Z,84.34
2018-09-08T04:46:29.186Z,84.46
2018-09-08T04:48:57.652Z,84.14
2018-09-08T04:51:39.265Z,84.73
2018-09-08T04:54:07.818Z,84.85
2018-09-08T04:56:36.245Z,85.01
2018-09-08T04:59:05.040Z,85.06
2018-09-08T05:01:33.551Z,85.32
2018-09-08T05:04:02.054Z,85.23
2018-09-08T05:06:30.560Z,85.26
2018-09-08T05:08:59.145Z,86.02
2018-09-08T05:11:27.611Z,86.15
2018-09-08T05:14:01.629Z,85.77
2018-09-08T05:16:30.202Z,86.35
2018-09-08T05:18:58.666Z,85.79
2018-09-08T05:21:27.260Z,85.93
2018-09-08T05:23:55.758Z,86.17
2018-09-08T05:26:24.244Z,86.57
2018-09-08T05:29:20.077Z,86.22
2018-09-08T05:31:48.635Z,86.57
2018-09-08T05:34:17.438Z,86.83
2018-09-08T05:36:45.914Z,86.92
2018-09-08T05:39:14.412Z,86.98
2018-09-08T05:41:42.982Z,86.52
2018-09-08T05:44:11.469Z,86.65
2018-09-08T05:46:39.937Z,87.21
2018-09-08T05:49:08.437Z,86.54
2018-09-08T05:51:36.901Z,87.01
2018-09-08T05:54:05.492Z,87.04
2018-09-08T05:56:33.920Z,86.71
2018-09-08T05:59:02.375Z,86.52
2018-09-08T06:01:30.952Z,86.51
2018-09-08T06:03:59.527Z,86.78
2018-09-08T06:06:28.007Z,86.21
2018-09-08T06:08:56.486Z,86.36
2018-09-08T06:11:24.966Z,86.03
2018-09-08T06:13:53.444Z,86.26
2018-09-08T06:16:22.490Z,86.04
2018-09-08T06:18:50.964Z,85.69
2018-09-08T06:21:19.508Z,85.53
2018-09-08T06:23:47.984Z,85.74
2018-09-08T06:26:16.440Z,85.06
2018-09-08T06:28:44.999Z,84.81
2018-09-08T06:31:13.548Z,84.79
2018-09-08T06:33:42.186Z,84.12
2018-09-08T06:36:10.844Z,84.24
2018-09-08T06:38:39.380Z,84.24
2018-09-08T06:41:07.976Z,83.68
2018-09-08T06:43:36.454Z,83.36
2018-09-08T06:46:04.969Z,83.60
2018-09-08T06:48:33.671Z,82.93
2018-09-08T06:51:02.222Z,83.12
2018-09-08T06:53:30.729Z,82.96
2018-09-08T06:55:59.480Z,82.16
2018-09-08T06:58:27.996Z,82.22
2018-09-08T07:00:56.602Z,81.72
2018-09-08T07:03:25.240Z,81.79
2018-09-08T07:05:53.859Z,81.39
2018-09-08T07:08:22.409Z,81.30
2018-09-08T07:10:50.889Z,81.16
2018-09-08T07:13:19.480Z,80.44
2018-09-08T07:15:48.082Z,80.53
2018-09-08T07:18:18.990Z,80.18
2018-09-08T07:20:47.615Z,80.09
2018-09-08T07:23:21.963Z,79.55
2018-09-08T07:25:50.514Z,79.44
2018-09-08T07:28:19.064Z,79.18
2018-09-08T07:30:47.550Z,78.77
2018-09-08T07:33:16.024Z,78.10
2018-09-08T07:35:44.554Z,77.74
2018-09-08T07:38:13.111Z,77.79
2018-09-08T07:40:50.194Z,77.80
2018-09-08T07:43:18.772Z,76.88
2018-09-08T07:45:47.458Z,77.11
2018-09-08T07:48:15.934Z,76.95
2018-09-08T07:50:44.423Z,76.46
2018-09-08T07:53:12.937Z,76.30
2018-09-08T07:55:41.488Z,76.25
2018-09-08T07:58:09.976Z,76.03
2018-09-08T08:00:38.541Z,76.25
2018-09-08T08:03:07.131Z,76.16
2018-09-08T08:05:35.596Z,76.93
2018-09-08T08:08:04.240Z,76.42
2018-09-08T08:11:18.114Z,75.39
2018-09-08T08:13:46.630Z,74.94
2018-09-08T08:16:15.211Z,74.91
2018-09-08T08:18:43.671Z,74.29
2018-09-08T08:21:12.347Z,74.05
2018-09-08T08:23:41.059Z,73.13
2018-09-08T08:26:10.160Z,72.18
2018-09-08T08:28:38.708Z,71.69
2018-09-08T08:31:07.343Z,71.19
2018-09-08T08:33:35.880Z,70.85
2018-09-08T08:36:04.472Z,70.18
2018-09-08T08:38:32.948Z,70.07
2018-09-08T08:41:01.417Z,70.31
2018-09-08T08:43:29.999Z,70.32
2018-09-08T08:45:58.486Z,69.67
2018-09-08T08:48:27.028Z,69.50
2018-09-08T08:51:06.787Z,69.99
2018-09-08T08:53:46.703Z,68.53
2018-09-08T08:56:15.340Z,68.51
2018-09-08T08:58:43.856Z,67.80
2018-09-08T09:01:12.509Z,67.97
2018-09-08T09:03:42.097Z,67.91
2018-09-08T09:06:10.606Z,68.02
2018-09-08T09:08:39.562Z,67.25
2018-09-08T09:11:07.694Z,67.13
2018-09-08T09:13:36.364Z,66.42
2018-09-08T09:16:04.843Z,66.40
2018-09-08T09:18:45.006Z,65.70
2018-09-08T09:21:24.309Z,65.70
2018-09-08T09:25:06.410Z,64.81
2018-09-08T09:27:43.012Z,64.36
2018-09-08T09:30:11.810Z,63.77
2018-09-08T09:33:06.702Z,63.19
2018-09-08T09:35:35.297Z,62.04
2018-09-08T09:38:04.069Z,61.27
2018-09-08T09:40:32.614Z,60.89
2018-09-08T09:43:01.174Z,59.96
2018-09-08T09:45:29.644Z,59.90
2018-09-08T09:47:58.271Z,60.51
2018-09-08T09:50:26.801Z,59.76
2018-09-08T09:52:55.472Z,59.57
2018-09-08T09:55:23.961Z,59.65
2018-09-08T09:57:52.432Z,59.80
2018-09-08T10:00:26.228Z,59.78
2018-09-08T10:02:59.977Z,59.12
2018-09-08T10:05:28.465Z,59.00
2018-09-08T10:07:57.010Z,59.12
2018-09-08T10:10:27.002Z,58.52
2018-09-08T10:12:55.626Z,58.46
2018-09-08T10:15:24.220Z,58.62
2018-09-08T10:17:52.883Z,58.07
2018-09-08T10:20:22.710Z,57.53
2018-09-08T10:22:51.381Z,57.22
2018-09-08T10:25:27.916Z,56.41
2018-09-08T10:27:56.370Z,56.19
2018-09-08T10:30:25.897Z,56.04
2018-09-08T10:32:54.350Z,55.48
2018-09-08T10:35:22.837Z,55.43
2018-09-08T10:37:51.292Z,55.08
2018-09-08T10:40:19.829Z,55.33
2018-09-08T10:42:48.362Z,53.13
2018-09-08T10:45:16.933Z,51.87
2018-09-08T10:47:46.082Z,52.31
2018-09-08T10:50:14.658Z,52.66
2018-09-08T10:52:44.897Z,52.68
2018-09-08T10:55:13.532Z,52.88
2018-09-08T10:57:42.018Z,52.26
2018-09-08T11:00:11.353Z,52.31
2018-09-08T11:02:40.354Z,52.13
2018-09-08T11:05:08.525Z,52.21
2018-09-08T11:07:37.052Z,51.06
2018-09-08T11:10:06.293Z,52.02
2018-09-08T11:12:34.936Z,50.70
2018-09-08T11:21:49.475Z,52.50
2018-09-08T11:24:18.184Z,52.88
2018-09-08T11:26:46.781Z,52.72
2018-09-08T11:29:16.325Z,52.26
2018-09-08T11:31:45.021Z,52.71
2018-09-08T11:34:13.495Z,52.68
2018-09-08T11:36:41.977Z,53.24
2018-09-08T11:39:10.421Z,52.67
2018-09-08T11:41:39.359Z,51.68
2018-09-08T11:44:07.806Z,49.92
2018-09-08T11:46:36.304Z,49.41
2018-09-08T11:49:04.810Z,48.79
2018-09-08T11:51:33.433Z,48.50
2018-09-08T11:54:01.861Z,48.68
2018-09-08T11:56:30.337Z,46.93
2018-09-08T11:58:58.879Z,46.28
2018-09-08T12:01:27.502Z,46.61
2018-09-08T12:03:56.096Z,47.15
2018-09-08T12:06:24.591Z,48.01
2018-09-08T12:08:53.164Z,47.99
2018-09-08T12:11:21.673Z,46.77
2018-09-08T12:13:50.275Z,45.88
2018-09-08T12:16:18.854Z,45.95
2018-09-08T12:18:47.446Z,45.26
2018-09-08T12:21:15.921Z,45.15
2018-09-08T12:23:44.432Z,45.98
2018-09-08T12:26:12.994Z,47.04
2018-09-08T12:28:41.468Z,47.64
2018-09-08T12:31:10.010Z,47.52
2018-09-08T12:33:38.629Z,46.56
2018-09-08T12:36:07.205Z,46.90
2018-09-08T12:38:35.715Z,46.53
2018-09-08T12:41:04.244Z,46.54
2018-09-08T12:43:32.690Z,46.84
2018-09-08T12:46:01.251Z,46.21
2018-09-08T12:48:30.822Z,45.07
2018-09-08T12:50:59.422Z,44.09
2018-09-08T12:53:28.090Z,44.72
2018-09-08T12:55:56.575Z,44.36
2018-09-08T12:58:25.068Z,43.49
2018-09-08T13:00:53.694Z,44.53
2018-09-08T13:06:44.524Z,45.60
2018-09-08T13:09:13.988Z,46.49
2018-09-08T13:11:42.633Z,45.91
2018-09-08T13:14:17.023Z,45.06
2018-09-08T13:16:45.458Z,43.55
2018-09-08T13:19:13.921Z,43.27
2018-09-08T13:21:42.673Z,42.95
2018-09-08T13:24:11.306Z,42.13
2018-09-08T13:26:39.909Z,40.50
2018-09-08T13:29:09.881Z,40.00
2018-09-08T13:31:38.763Z,40.29
2018-09-08T13:34:07.303Z,41.08
2018-09-08T13:36:35.852Z,42.23
2018-09-08T13:39:05.484Z,43.63
2018-09-08T13:42:00.711Z,43.73
2018-09-08T13:44:29.265Z,44.64
2018-09-08T13:46:57.908Z,44.61
2018-09-08T13:49:26.359Z,44.57
2018-09-08T13:51:54.902Z,45.25
2018-09-08T13:54:23.615Z,45.20
2018-09-08T13:56:52.180Z,44.31
2018-09-08T13:59:20.802Z,43.70
2018-09-08T14:01:49.839Z,43.77
2018-09-08T14:04:18.560Z,43.65
2018-09-08T14:07:18.714Z,43.24
2018-09-08T14:10:00.159Z,42.79
2018-09-08T14:12:28.759Z,43.39
2018-09-08T14:14:57.215Z,43.95
2018-09-08T14:17:25.707Z,44.11
2018-09-08T14:19:54.205Z,43.78
2018-09-08T14:22:36.732Z,44.10
2018-09-08T14:25:05.790Z,44.29
2018-09-08T14:27:34.278Z,44.78
2018-09-08T14:30:02.969Z,44.77
2018-09-08T14:32:31.554Z,44.87
2018-09-08T14:35:00.121Z,44.47
2018-09-08T14:37:28.595Z,44.58
2018-09-08T14:39:57.093Z,44.78
2018-09-08T14:42:25.564Z,44.04
2018-09-08T14:45:25.310Z,45.22
2018-09-08T14:47:53.846Z,45.39
2018-09-08T14:50:22.368Z,44.96
2018-09-08T14:52:50.950Z,45.26
2018-09-08T14:55:19.418Z,45.66
2018-09-08T14:57:47.929Z,45.34
2018-09-08T15:00:16.509Z,45.43
2018-09-08T15:02:45.071Z,45.51
2018-09-08T15:05:13.681Z,45.54
2018-09-08T15:07:42.143Z,45.24
2018-09-08T15:10:10.678Z,44.52
2018-09-08T15:12:39.258Z,44.67
2018-09-08T15:15:08.004Z,44.96
2018-09-08T15:17:36.593Z,45.02
2018-09-08T15:20:26.974Z,45.76
2018-09-08T15:22:56.495Z,46.22
2018-09-08T15:25:24.961Z,46.71
2018-09-08T15:27:53.522Z,46.56
2018-09-08T15:30:43.447Z,46.78
2018-09-08T15:33:11.962Z,46.96
2018-09-08T15:35:45.663Z,47.12
2018-09-08T15:38:14.245Z,47.17
2018-09-08T15:41:00.117Z,47.41
2018-09-08T15:43:28.675Z,46.97
2018-09-08T15:45:57.211Z,47.29
2018-09-08T15:48:25.652Z,47.19
2018-09-08T15:50:54.250Z,47.91
2018-09-08T15:53:22.724Z,48.32
2018-09-08T15:55:51.157Z,48.13
2018-09-08T15:58:19.692Z,48.12
2018-09-08T16:00:48.249Z,48.70
2018-09-08T16:03:16.662Z,48.68
2018-09-08T16:05:45.203Z,48.99
2018-09-08T16:08:13.723Z,48.87
2018-09-08T16:10:42.379Z,49.37
2018-09-08T16:13:10.920Z,49.90
2018-09-08T16:15:39.565Z,49.80
2018-09-08T16:18:09.001Z,50.12
2018-09-08T16:20:37.477Z,50.16
2018-09-08T16:23:18.111Z,51.07
2018-09-08T16:25:46.685Z,50.61
2018-09-08T16:28:15.585Z,51.03
2018-09-08T16:30:44.148Z,51.61
2018-09-08T16:33:12.670Z,52.01
2018-09-08T16:35:41.124Z,52.71
2018-09-08T16:38:09.697Z,52.47
2018-09-08T16:40:38.185Z,52.52
2018-09-08T16:43:06.841Z,52.69
2018-09-08T16:45:35.307Z,53.59
2018-09-08T16:48:03.902Z,53.63
2018-09-08T16:50:46.854Z,53.83
2018-09-08T16:53:15.296Z,53.97
2018-09-08T16:55:43.842Z,53.72
2018-09-08T16:58:12.350Z,54.29
2018-09-08T17:00:40.901Z,54.45
2018-09-08T17:03:09.419Z,54.04
2018-09-08T17:05:37.943Z,54.71
2018-09-08T17:08:07.297Z,55.08
2018-09-08T17:10:35.845Z,55.29
2018-09-08T17:13:04.350Z,56.08
2018-09-08T17:15:32.900Z,56.29
2018-09-08T17:18:01.484Z,56.15
2018-09-08T17:20:29.968Z,56.60
2018-09-08T17:22:58.611Z,56.88
2018-09-08T17:25:27.281Z,57.18
2018-09-08T17:27:55.724Z,57.69
2018-09-08T17:30:24.324Z,57.93
2018-09-08T17:32:52.906Z,57.97
2018-09-08T17:35:21.476Z,58.23
2018-09-08T17:37:49.954Z,58.49
2018-09-08T17:40:18.575Z,58.89
2018-09-08T17:42:47.118Z,59.01
2018-09-08T17:45:15.667Z,59.26
2018-09-08T17:47:44.220Z,58.89
2018-09-08T17:50:12.820Z,59.19
2018-09-08T17:52:41.363Z,59.17
2018-09-08T17:55:09.803Z,59.85
2018-09-08T17:57:38.284Z,60.05
2018-09-08T18:00:07.390Z,59.72
2018-09-08T18:02:35.962Z,59.60
2018-09-08T18:05:04.625Z,59.86
2018-09-08T18:07:33.159Z,59.70
2018-09-08T18:10:17.924Z,59.75
2018-09-08T18:12:46.501Z,60.74
2018-09-08T18:15:16.029Z,61.34
2018-09-08T18:17:44.693Z,61.70
2018-09-08T18:20:13.323Z,62.37
2018-09-08T18:22:41.986Z,62.51
2018-09-08T18:25:24.883Z,62.58
2018-09-08T18:27:53.480Z,62.68
2018-09-08T18:30:21.955Z,63.26
2018-09-08T18:32:50.630Z,62.92
2018-09-08T18:35:19.083Z,62.41
2018-09-08T18:37:47.581Z,62.73
2018-09-08T18:40:16.184Z,63.63
2018-09-08T18:42:45.001Z,63.19
2018-09-08T18:45:13.702Z,63.59
2018-09-08T18:47:42.365Z,63.31
2018-09-08T18:50:11.012Z,64.10
2018-09-08T18:52:39.582Z,65.18
2018-09-08T18:55:08.077Z,65.49
2018-09-08T18:57:36.701Z,66.44
2018-09-08T19:00:05.263Z,66.96
2018-09-08T19:02:33.716Z,66.93
2018-09-08T19:05:03.214Z,67.54
2018-09-08T19:07:31.703Z,68.40
2018-09-08T19:10:06.926Z,67.62
2018-09-08T19:12:36.444Z,68.90
2018-09-08T19:15:10.211Z,69.32
2018-09-08T19:17:39.006Z,70.10
2018-09-08T19:20:12.799Z,70.84
2018-09-08T19:22:41.433Z,70.76
2018-09-08T19:25:09.991Z,70.64
2018-09-08T19:27:39.111Z,70.86
2018-09-08T19:30:07.748Z,71.31
2018-09-08T19:32:36.396Z,71.57
2018-09-08T19:35:10.249Z,72.24
2018-09-08T19:37:54.370Z,72.13
2018-09-08T19:40:28.403Z,72.01
2018-09-08T19:42:57.129Z,72.98
2018-09-08T19:45:25.717Z,74.15
2018-09-08T19:47:59.416Z,74.76
2018-09-08T19:50:27.977Z,74.84
2018-09-08T19:53:02.209Z,75.01
2018-09-08T19:55:31.317Z,75.62
2018-09-08T19:58:05.156Z,75.27
2018-09-08T20:00:33.714Z,75.62
2018-09-08T20:03:02.310Z,76.30
2018-09-08T20:05:30.992Z,76.34
2018-09-08T20:07:59.572Z,77.00
2018-09-08T20:10:28.236Z,76.99
2018-09-08T20:12:56.813Z,76.77
2018-09-08T20:18:48.376Z,77.48
2018-09-08T20:24:42.447Z,77.33
2018-09-08T20:27:10.948Z,77.29
2018-09-08T20:29:39.399Z,77.71
2018-09-08T20:32:07.882Z,77.42
2018-09-08T20:34:36.415Z,77.64
2018-09-08T20:37:05.110Z,78.61
2018-09-08T20:39:33.633Z,78.38
2018-09-08T20:42:02.344Z,78.15
2018-09-08T20:44:30.946Z,78.65
2018-09-08T20:46:59.702Z,79.06
2018-09-08T20:49:28.285Z,79.41
2018-09-08T20:51:58.121Z,79.75
2018-09-08T20:54:30.375Z,80.02
2018-09-08T20:56:59.506Z,79.55
2018-09-08T20:59:27.987Z,79.58
2018-09-08T21:01:56.441Z,80.04
2018-09-08T21:04:25.632Z,79.67
2018-09-08T21:06:54.162Z,79.28
2018-09-08T21:09:22.996Z,79.95
2018-09-08T21:11:51.536Z,79.61
2018-09-08T21:14:20.007Z,79.15
2018-09-08T21:16:48.479Z,78.75
2018-09-08T21:19:51.439Z,78.54
2018-09-08T21:22:19.929Z,77.62
2018-09-08T21:24:55.488Z,77.18
2018-09-08T21:27:23.906Z,76.68
2018-09-08T21:29:52.422Z,77.21
2018-09-08T21:32:21.036Z,77.50
2018-09-08T21:34:49.714Z,77.54
2018-09-08T21:37:18.185Z,78.10
2018-09-08T21:39:46.791Z,78.83
2018-09-08T21:42:15.357Z,79.10
2018-09-08T21:44:43.951Z,79.50
2018-09-08T21:47:25.122Z,79.61
2018-09-08T21:49:53.709Z,79.54
2018-09-08T21:52:22.458Z,79.58
2018-09-08T21:54:51.301Z,79.67
2018-09-08T21:57:19.947Z,79.55
2018-09-08T21:59:48.463Z,79.62
2018-09-08T22:02:17.327Z,79.49
2018-09-08T22:04:45.937Z,79.28
2018-09-08T22:07:15.758Z,79.84
2018-09-08T22:09:44.417Z,79.80
2018-09-08T22:12:13.781Z,79.55
2018-09-08T22:14:42.602Z,79.31
2018-09-08T22:17:11.264Z,79.36
2018-09-08T22:19:39.827Z,79.69
2018-09-08T22:22:08.422Z,79.38
2018-09-08T22:24:36.885Z,78.78
2018-09-08T22:27:06.290Z,79.08
2018-09-08T22:29:34.801Z,78.90
2018-09-08T22:32:04.417Z,78.72
2018-09-08T22:34:33.035Z,78.76
2018-09-08T22:37:07.755Z,78.97
2018-09-08T22:39:36.289Z,79.04
2018-09-08T22:42:04.769Z,79.31
2018-09-08T22:44:33.874Z,79.07
2018-09-08T22:47:02.696Z,79.12
2018-09-08T22:49:31.215Z,79.79
2018-09-08T22:51:59.762Z,79.44
2018-09-08T22:54:28.228Z,79.18
2018-09-08T22:56:56.764Z,79.57
2018-09-08T22:59:25.228Z,79.70
2018-09-08T23:01:53.801Z,79.75
2018-09-08T23:04:22.285Z,80.03
2018-09-08T23:07:25.827Z,80.33
2018-09-08T23:09:54.372Z,79.27
2018-09-08T23:12:22.918Z,78.86
2018-09-08T23:14:51.441Z,78.77
2018-09-08T23:17:19.900Z,78.83
2018-09-08T23:19:48.424Z,78.78
2018-09-08T23:22:16.884Z,78.57
2018-09-08T23:24:46.084Z,78.31
2018-09-08T23:27:14.657Z,78.53
2018-09-08T23:29:43.137Z,79.05
2018-09-08T23:32:11.617Z,78.65
2018-09-08T23:34:40.095Z,78.22
2018-09-08T23:37:08.752Z,77.89
2018-09-08T23:39:37.299Z,78.08
2018-09-08T23:42:05.743Z,77.28
2018-09-08T23:44:34.800Z,77.53
2018-09-08T23:47:03.965Z,77.49
2018-09-08T23:49:32.535Z,77.46
2018-09-08T23:52:01.054Z,76.53
2018-09-08T23:54:29.602Z,76.28
2018-09-08T23:56:58.485Z,75.45
2018-09-08T23:59:27.181Z,75.84
